Time;durP1;ratioP1;P1;durP2;ratioP2;P2;SDS_P1;SDS_P2;PMS_P1;PMS_P2;Temp;Humidity;BMP_temperature;BMP_pressure;BME280_temperature;BME280_humidity;BME280_pressure;Samples;Min_cycle;Max_cycle;Signal;HPM_P1;HPM_P2
2021/12/18 00:00:48;;;;;;;8.73;5.45;;;7.00;99.90;;;;;;5027308;28;20034;-75
2021/12/18 00:03:14;;;;;;;8.55;6.53;;;7.00;99.90;;;;;;5029074;28;20087;-74
2021/12/18 00:05:40;;;;;;;7.07;5.60;;;7.00;99.90;;;;;;5009403;28;20033;-74
2021/12/18 00:08:06;;;;;;;8.63;5.53;;;6.80;99.90;;;;;;5027286;28;20112;-74
2021/12/18 00:10:32;;;;;;;7.70;5.65;;;6.90;99.90;;;;;;5027669;28;20330;-74
2021/12/18 00:13:00;;;;;;;9.30;4.78;;;6.80;99.90;;;;;;5009398;28;20025;-74
2021/12/18 00:15:26;;;;;;;10.40;5.20;;;6.70;99.90;;;;;;5027774;28;20079;-74
2021/12/18 00:17:52;;;;;;;8.07;4.88;;;6.60;99.90;;;;;;5028317;28;20512;-74
2021/12/18 00:20:19;;;;;;;7.65;5.05;;;6.60;99.90;;;;;;5027201;28;20040;-75
2021/12/18 00:22:45;;;;;;;8.20;4.90;;;6.50;99.90;;;;;;5009535;28;20067;-74
2021/12/18 00:25:11;;;;;;;8.52;4.55;;;6.50;99.90;;;;;;5027464;28;20491;-74
2021/12/18 00:27:37;;;;;;;8.63;4.65;;;6.50;99.90;;;;;;5027188;28;20032;-74
2021/12/18 00:30:05;;;;;;;6.88;5.20;;;6.50;99.90;;;;;;5011194;28;20029;-74
2021/12/18 00:32:30;;;;;;;7.72;5.47;;;6.50;99.90;;;;;;5027011;28;20072;-74
2021/12/18 00:34:56;;;;;;;9.63;5.93;;;6.50;99.90;;;;;;5027277;28;20021;-74
2021/12/18 00:37:22;;;;;;;7.90;4.63;;;6.50;99.90;;;;;;5026932;28;20029;-74
2021/12/18 00:39:59;;;;;;;7.82;5.20;;;6.50;99.90;;;;;;5027015;28;20491;-74
2021/12/18 00:45:01;;;;;;;7.80;5.28;;;6.50;99.90;;;;;;5028384;28;20242;-74
2021/12/18 00:47:26;;;;;;;8.52;5.30;;;6.40;99.90;;;;;;5008246;28;20071;-74
2021/12/18 00:49:52;;;;;;;8.70;5.40;;;6.40;99.90;;;;;;5026641;28;20022;-75
2021/12/18 00:52:18;;;;;;;6.05;4.63;;;6.30;99.90;;;;;;5027266;28;20030;-74
2021/12/18 00:54:43;;;;;;;8.77;4.97;;;6.10;99.90;;;;;;5027148;28;20029;-74
2021/12/18 00:57:09;;;;;;;7.32;5.30;;;6.10;99.90;;;;;;5028810;28;20483;-74
2021/12/18 00:59:35;;;;;;;8.40;5.38;;;6.10;99.90;;;;;;5009308;28;20561;-74
2021/12/18 01:02:01;;;;;;;6.65;4.93;;;5.90;99.90;;;;;;5027209;28;20320;-74
2021/12/18 01:04:27;;;;;;;8.15;5.22;;;5.70;99.90;;;;;;5028161;28;20025;-74
2021/12/18 01:06:53;;;;;;;8.60;5.10;;;5.60;99.90;;;;;;5030309;28;20037;-74
2021/12/18 01:09:24;;;;;;;8.05;5.63;;;5.80;99.90;;;;;;5032416;28;20036;-74
2021/12/18 01:11:50;;;;;;;;;;;6.00;99.90;;;;;;5032000;28;20026;-74
2021/12/18 01:25:01;;;;;;;7.78;4.90;;;6.00;99.90;;;;;;5030260;28;20036;-74
2021/12/18 01:27:26;;;;;;;7.45;5.15;;;6.00;99.90;;;;;;5030835;28;20038;-74
2021/12/18 01:29:52;;;;;;;8.52;5.18;;;5.90;99.90;;;;;;5031175;28;20017;-74
2021/12/18 01:32:18;;;;;;;9.38;5.90;;;5.80;99.90;;;;;;5030131;28;20557;-74
2021/12/18 01:34:44;;;;;;;6.22;4.68;;;5.50;99.90;;;;;;5029613;28;20113;-74
2021/12/18 01:37:10;;;;;;;8.75;5.07;;;5.60;99.90;;;;;;5029933;28;20056;-74
2021/12/18 01:39:36;;;;;;;7.88;4.80;;;5.60;99.90;;;;;;5030387;28;20087;-74
2021/12/18 01:52:54;;;;;;;5.95;4.32;;;5.10;99.90;;;;;;5007592;28;20468;-74
2021/12/18 01:55:25;;;;;;;7.38;4.82;;;5.00;99.90;;;;;;5006846;28;20033;-74
2021/12/18 01:57:51;;;;;;;8.65;4.97;;;5.00;99.90;;;;;;5007388;28;20030;-74
2021/12/18 02:00:19;;;;;;;7.78;4.68;;;5.10;99.90;;;;;;5009202;28;20681;-74
2021/12/18 02:02:45;;;;;;;8.77;5.05;;;4.70;99.90;;;;;;5006997;28;20053;-74
2021/12/18 02:05:11;;;;;;;8.18;5.15;;;4.80;99.90;;;;;;5006468;28;20029;-74
2021/12/18 02:07:39;;;;;;;9.52;5.63;;;4.80;99.90;;;;;;5007027;28;20053;-74
2021/12/18 02:10:09;;;;;;;10.07;5.35;;;4.80;99.90;;;;;;5007139;28;20045;-74
2021/12/18 02:21:06;;;;;;;10.68;5.68;;;4.70;99.90;;;;;;5008312;28;20041;-74
2021/12/18 02:23:33;;;;;;;8.05;5.43;;;4.60;99.90;;;;;;5006818;28;20030;-74
2021/12/18 02:25:59;;;;;;;8.68;5.18;;;4.50;99.90;;;;;;5006668;28;20033;-74
2021/12/18 02:28:26;;;;;;;7.82;5.57;;;4.50;99.90;;;;;;5029127;28;20104;-74
2021/12/18 02:30:55;;;;;;;7.82;4.88;;;4.50;99.90;;;;;;5011476;28;20025;-74
2021/12/18 02:33:22;;;;;;;7.90;5.57;;;4.50;99.90;;;;;;5030491;28;20033;-74
2021/12/18 02:35:50;;;;;;;8.80;5.53;;;4.60;99.90;;;;;;5029175;28;20104;-74
2021/12/18 02:38:20;;;;;;;7.32;5.18;;;4.40;99.90;;;;;;5028345;28;20087;-74
2021/12/18 02:41:07;;;;;;;8.18;5.38;;;4.50;99.90;;;;;;5028495;28;20017;-74
2021/12/18 02:43:36;;;;;;;10.05;5.82;;;4.40;99.90;;;;;;5029011;28;20057;-74
2021/12/18 02:46:06;;;;;;;11.55;6.10;;;4.50;99.90;;;;;;5028386;28;20038;-74
2021/12/18 02:48:34;;;;;;;13.80;5.90;;;4.40;99.90;;;;;;5028949;28;20099;-74
2021/12/18 02:51:00;;;;;;;9.90;6.80;;;4.30;99.90;;;;;;5029678;28;20022;-74
2021/12/18 02:53:26;;;;;;;10.65;6.00;;;4.30;99.90;;;;;;5028396;28;20502;-74
2021/12/18 02:55:57;;;;;;;10.88;6.40;;;4.20;99.90;;;;;;5028489;28;20017;-74
2021/12/18 02:58:23;;;;;;;11.65;6.60;;;4.10;99.90;;;;;;5028768;28;20025;-74
2021/12/18 03:00:50;;;;;;;10.32;6.25;;;4.00;99.90;;;;;;5012927;28;20530;-74
2021/12/18 03:03:16;;;;;;;10.48;6.65;;;4.00;99.90;;;;;;5029928;28;20048;-74
2021/12/18 03:05:58;;;;;;;9.95;6.88;;;4.00;99.90;;;;;;5028102;28;20017;-73
2021/12/18 03:08:37;;;;;;;9.73;6.40;;;4.00;99.90;;;;;;5010412;28;20510;-74
2021/12/18 03:23:01;;;;;;;11.73;5.70;;;4.00;99.90;;;;;;4986078;28;20120;-74
2021/12/18 03:27:25;;;;;;;9.43;6.07;;;3.90;99.90;;;;;;4986036;28;20034;-74
2021/12/18 03:29:51;;;;;;;9.82;6.10;;;3.90;99.90;;;;;;4986847;28;20077;-74
2021/12/18 03:32:17;;;;;;;7.32;5.10;;;3.70;99.90;;;;;;4986258;28;20038;-74
2021/12/18 03:34:43;;;;;;;8.40;5.50;;;3.70;99.90;;;;;;4985750;28;20043;-74
2021/12/18 03:37:09;;;;;;;10.55;5.53;;;3.80;99.90;;;;;;4985635;28;20508;-74
2021/12/18 03:39:35;;;;;;;7.88;5.15;;;3.70;99.90;;;;;;4986358;28;20034;-74
2021/12/18 03:42:02;;;;;;;7.57;5.30;;;3.70;99.90;;;;;;4987516;28;20082;-74
2021/12/18 03:44:28;;;;;;;9.45;5.95;;;3.70;99.90;;;;;;4985649;28;20044;-74
2021/12/18 03:46:55;;;;;;;7.70;4.88;;;3.70;99.90;;;;;;4985741;28;20122;-74
2021/12/18 03:49:20;;;;;;;9.43;5.22;;;3.60;99.90;;;;;;4985815;28;20031;-74
2021/12/18 03:51:46;;;;;;;7.93;5.22;;;3.60;99.90;;;;;;4985414;28;20042;-74
2021/12/18 03:54:12;;;;;;;8.77;5.40;;;3.60;99.90;;;;;;5018684;28;20415;-74
2021/12/18 03:56:37;;;;;;;9.25;5.47;;;3.60;99.90;;;;;;5009768;28;20064;-74
2021/12/18 03:59:03;;;;;;;8.43;5.50;;;3.60;99.90;;;;;;5027445;28;20056;-74
2021/12/18 04:01:29;;;;;;;9.80;5.53;;;3.50;99.90;;;;;;5027728;28;20513;-74
2021/12/18 04:03:55;;;;;;;9.45;5.85;;;3.40;99.90;;;;;;5027705;28;20543;-74
2021/12/18 04:06:20;;;;;;;8.90;5.30;;;3.40;99.90;;;;;;5028981;28;20533;-74
2021/12/18 04:08:46;;;;;;;8.48;5.45;;;3.30;99.90;;;;;;5027742;28;20494;-74
2021/12/18 04:11:12;;;;;;;9.85;5.93;;;3.20;99.90;;;;;;5009560;28;20021;-74
2021/12/18 04:13:43;;;;;;;7.85;5.45;;;3.20;99.90;;;;;;5027585;28;20022;-74
2021/12/18 04:16:09;;;;;;;9.98;5.63;;;3.10;99.90;;;;;;5027545;28;20522;-74
2021/12/18 04:18:35;;;;;;;11.10;5.47;;;2.90;99.90;;;;;;5027304;28;20065;-74
2021/12/18 04:21:00;;;;;;;9.35;5.40;;;3.10;99.90;;;;;;5010816;28;20545;-74
2021/12/18 04:23:26;;;;;;;7.25;4.60;;;2.90;99.90;;;;;;5009535;28;20025;-74
2021/12/18 04:25:54;;;;;;;8.65;5.20;;;3.00;99.90;;;;;;5009412;28;20430;-74
2021/12/18 04:28:20;;;;;;;9.32;5.20;;;3.10;99.90;;;;;;5027974;28;20018;-74
2021/12/18 04:30:46;;;;;;;9.05;5.15;;;3.10;99.90;;;;;;5026977;28;20029;-74
2021/12/18 04:33:11;;;;;;;8.05;6.10;;;3.20;99.90;;;;;;5028684;28;20495;-74
2021/12/18 04:35:37;;;;;;;11.32;5.82;;;3.00;99.90;;;;;;5027007;28;20546;-74
2021/12/18 04:38:03;;;;;;;7.57;5.13;;;3.00;99.90;;;;;;5026872;28;20831;-74
2021/12/18 04:40:28;;;;;;;9.80;4.95;;;2.90;99.90;;;;;;5030109;28;20024;-74
2021/12/18 04:42:55;;;;;;;8.18;5.05;;;2.80;99.90;;;;;;5031266;28;20479;-74
2021/12/18 04:45:20;;;;;;;7.82;4.50;;;2.90;99.90;;;;;;5032555;28;20031;-74
2021/12/18 04:47:46;;;;;;;8.43;5.13;;;2.80;99.90;;;;;;5031147;28;20033;-74
2021/12/18 04:50:12;;;;;;;9.60;4.78;;;2.90;99.90;;;;;;5030719;28;20542;-74
2021/12/18 04:52:38;;;;;;;7.22;5.28;;;2.80;99.90;;;;;;5012795;28;20391;-74
2021/12/18 04:55:05;;;;;;;10.35;5.35;;;2.80;99.90;;;;;;5030586;28;20025;-74
2021/12/18 04:57:30;;;;;;;8.45;5.60;;;2.80;99.90;;;;;;5031209;28;20128;-74
2021/12/18 04:59:57;;;;;;;8.75;5.38;;;2.70;99.90;;;;;;5031737;28;20538;-74
2021/12/18 05:02:33;;;;;;;9.60;5.50;;;2.70;99.90;;;;;;5030675;28;20029;-74
2021/12/18 05:04:58;;;;;;;10.60;5.88;;;2.70;99.90;;;;;;5030459;28;20030;-74
2021/12/18 05:07:26;;;;;;;7.35;5.20;;;2.60;99.90;;;;;;5030159;28;20087;-74
2021/12/18 05:09:51;;;;;;;8.95;5.85;;;2.60;99.90;;;;;;5015134;28;20033;-74
2021/12/18 05:12:17;;;;;;;9.23;5.82;;;2.60;99.90;;;;;;5032305;28;20528;-74
2021/12/18 05:14:43;;;;;;;10.63;5.80;;;2.70;99.90;;;;;;5030403;28;20510;-74
2021/12/18 05:17:08;;;;;;;10.05;5.43;;;2.60;99.90;;;;;;5012382;28;20060;-74
2021/12/18 05:19:34;;;;;;;10.27;5.90;;;2.50;99.90;;;;;;5012634;28;20072;-74
2021/12/18 05:22:00;;;;;;;9.20;5.07;;;2.50;99.90;;;;;;5030330;28;20079;-74
2021/12/18 05:24:26;;;;;;;7.75;5.57;;;2.50;99.90;;;;;;5012941;28;20445;-74
2021/12/18 05:26:51;;;;;;;8.80;5.60;;;2.50;99.90;;;;;;5031349;28;20044;-74
2021/12/18 05:29:17;;;;;;;10.85;6.85;;;2.40;99.90;;;;;;5030068;28;20445;-74
2021/12/18 05:31:43;;;;;;;8.60;5.65;;;2.40;99.90;;;;;;5028969;28;20387;-74
2021/12/18 05:34:09;;;;;;;9.27;5.72;;;2.30;99.90;;;;;;5012471;28;20029;-74
2021/12/18 05:36:41;;;;;;;10.10;5.90;;;2.30;99.90;;;;;;5012436;28;20059;-74
2021/12/18 05:39:09;;;;;;;7.57;5.10;;;2.20;99.90;;;;;;5031748;28;20522;-74
2021/12/18 05:41:35;;;;;;;8.07;4.97;;;2.20;99.90;;;;;;5030134;28;20407;-74
2021/12/18 05:44:02;;;;;;;8.95;5.30;;;2.30;99.90;;;;;;5029792;28;20033;-74
2021/12/18 05:46:28;;;;;;;9.18;5.20;;;2.30;99.90;;;;;;5029243;28;20072;-74
2021/12/18 05:48:54;;;;;;;9.77;5.15;;;2.30;99.90;;;;;;5012436;28;20490;-74
2021/12/18 05:51:20;;;;;;;9.13;5.30;;;2.20;99.90;;;;;;5012626;28;20026;-74
2021/12/18 05:53:46;;;;;;;8.02;5.00;;;2.20;99.90;;;;;;5029436;28;20026;-74
2021/12/18 05:56:12;;;;;;;7.78;5.45;;;2.10;99.90;;;;;;5029544;28;20064;-74
2021/12/18 05:58:38;;;;;;;9.68;5.50;;;2.10;99.90;;;;;;5011572;28;20498;-74
2021/12/18 06:01:03;;;;;;;8.40;5.28;;;2.00;99.90;;;;;;5029348;28;20033;-74
2021/12/18 06:03:29;;;;;;;8.73;5.15;;;1.60;99.90;;;;;;5012445;28;20513;-74
2021/12/18 06:05:55;;;;;;;9.02;6.03;;;1.80;99.90;;;;;;5030599;28;20108;-74
2021/12/18 06:08:20;;;;;;;8.57;5.47;;;1.90;99.90;;;;;;5029083;28;20414;-74
2021/12/18 06:10:46;;;;;;;7.45;4.40;;;1.90;99.90;;;;;;5028971;28;20026;-74
2021/12/18 06:13:12;;;;;;;7.43;5.03;;;1.50;99.90;;;;;;5029438;28;20027;-74
2021/12/18 06:15:37;;;;;;;8.10;4.88;;;1.30;99.90;;;;;;5029115;28;20580;-74
2021/12/18 06:18:03;;;;;;;7.60;4.85;;;1.50;99.90;;;;;;5031016;28;20036;-74
2021/12/18 06:20:29;;;;;;;11.23;5.25;;;1.70;99.90;;;;;;5028935;28;20068;-74
2021/12/18 06:22:56;;;;;;;14.32;7.13;;;1.60;99.90;;;;;;5029474;28;20494;-74
2021/12/18 06:25:22;;;;;;;22.42;8.52;;;1.60;99.90;;;;;;5029209;28;20073;-74
2021/12/18 06:27:48;;;;;;;17.80;8.90;;;1.50;99.90;;;;;;5011565;28;20060;-74
2021/12/18 06:30:17;;;;;;;23.60;10.35;;;1.60;99.90;;;;;;5030492;28;20510;-74
2021/12/18 06:32:43;;;;;;;24.75;10.13;;;1.60;99.90;;;;;;5028808;28;20021;-74
2021/12/18 06:35:09;;;;;;;31.60;11.60;;;1.60;99.90;;;;;;5028279;28;20036;-74
2021/12/18 06:37:35;;;;;;;28.50;11.55;;;1.40;99.90;;;;;;5028387;28;20028;-74
2021/12/18 06:40:01;;;;;;;27.63;11.77;;;1.50;99.90;;;;;;5011039;28;20132;-74
2021/12/18 06:42:27;;;;;;;30.65;13.00;;;1.30;99.90;;;;;;5029473;28;20538;-74
2021/12/18 06:44:52;;;;;;;32.55;14.25;;;1.10;99.90;;;;;;5029782;28;20222;-74
2021/12/18 06:47:18;;;;;;;28.88;12.35;;;1.20;99.90;;;;;;5028476;28;20531;-74
2021/12/18 06:49:44;;;;;;;26.40;11.90;;;1.00;99.90;;;;;;5028832;28;20082;-73
2021/12/18 06:52:09;;;;;;;29.98;11.88;;;0.90;99.90;;;;;;5029385;28;20503;-74
2021/12/18 06:54:35;;;;;;;26.25;11.20;;;1.10;99.90;;;;;;5029011;28;20101;-74
2021/12/18 06:57:02;;;;;;;28.50;11.30;;;1.10;99.90;;;;;;5029625;28;20057;-74
2021/12/18 06:59:28;;;;;;;23.55;10.73;;;1.00;99.90;;;;;;5028246;28;20034;-74
2021/12/18 07:01:54;;;;;;;21.77;10.25;;;0.90;99.90;;;;;;5028071;28;20026;-74
2021/12/18 07:04:20;;;;;;;20.58;9.10;;;1.10;99.90;;;;;;5028826;28;20027;-74
2021/12/18 07:06:46;;;;;;;19.67;8.90;;;1.00;99.90;;;;;;5027937;28;20067;-74
2021/12/18 07:09:12;;;;;;;20.52;8.32;;;1.10;99.90;;;;;;5030207;28;20030;-74
2021/12/18 07:11:38;;;;;;;16.63;7.40;;;0.90;99.90;;;;;;5028249;28;20033;-74
2021/12/18 07:14:03;;;;;;;12.63;6.57;;;0.80;99.90;;;;;;5027942;28;20060;-74
2021/12/18 07:16:29;;;;;;;13.00;6.90;;;0.80;99.90;;;;;;5028249;28;20057;-74
2021/12/18 07:18:55;;;;;;;14.60;6.65;;;0.80;99.90;;;;;;5028457;28;20088;-74
2021/12/18 07:21:21;;;;;;;13.95;7.60;;;0.90;99.90;;;;;;5029839;28;20499;-75
2021/12/18 07:23:47;;;;;;;11.20;5.90;;;0.90;99.90;;;;;;5020317;28;20014;-74
2021/12/18 07:26:13;;;;;;;13.25;6.40;;;1.10;99.90;;;;;;5026981;28;20565;-74
2021/12/18 07:28:40;;;;;;;13.00;6.13;;;1.20;99.90;;;;;;5027614;28;20021;-74
2021/12/18 07:31:06;;;;;;;13.88;5.88;;;1.10;99.90;;;;;;5027574;28;20017;-74
2021/12/18 07:33:31;;;;;;;11.95;5.65;;;1.10;99.90;;;;;;5027705;28;20040;-74
2021/12/18 07:35:57;;;;;;;14.38;6.30;;;1.20;99.90;;;;;;5028370;28;20498;-74
2021/12/18 07:38:23;;;;;;;12.05;6.38;;;1.30;99.90;;;;;;5027284;28;20534;-74
2021/12/18 07:40:49;;;;;;;11.95;6.22;;;1.10;99.90;;;;;;5009684;28;20220;-74
2021/12/18 07:43:15;;;;;;;12.88;5.20;;;1.20;99.90;;;;;;5027217;28;20029;-74
2021/12/18 07:45:40;;;;;;;7.78;4.60;;;1.20;99.90;;;;;;5026949;28;20482;-74
2021/12/18 07:48:06;;;;;;;12.90;5.97;;;1.20;99.90;;;;;;5011439;28;20445;-74
2021/12/18 07:50:32;;;;;;;9.20;5.20;;;1.10;99.90;;;;;;5026743;28;20021;-74
2021/12/18 07:52:58;;;;;;;11.80;6.43;;;0.80;99.90;;;;;;5027086;28;20049;-74
2021/12/18 07:55:24;;;;;;;13.73;6.13;;;0.70;99.90;;;;;;5026568;28;20616;-74
2021/12/18 07:57:51;;;;;;;12.52;7.03;;;0.80;99.90;;;;;;5026852;28;20029;-74
2021/12/18 08:00:18;;;;;;;10.90;5.88;;;0.90;99.90;;;;;;5028555;28;20060;-74
2021/12/18 08:02:43;;;;;;;13.43;6.85;;;1.20;99.90;;;;;;5008878;28;20490;-74
2021/12/18 08:05:10;;;;;;;12.77;6.57;;;1.40;99.90;;;;;;5026934;28;20108;-74
2021/12/18 08:07:35;;;;;;;11.18;6.53;;;1.40;99.90;;;;;;5026631;28;20052;-74
2021/12/18 08:10:02;;;;;;;13.48;6.50;;;1.50;99.90;;;;;;5027040;28;20025;-74
2021/12/18 08:12:28;;;;;;;12.55;6.53;;;1.60;99.90;;;;;;5027074;28;20032;-74
2021/12/18 08:14:55;;;;;;;14.90;6.72;;;1.70;99.90;;;;;;5032641;28;20021;-74
2021/12/18 08:17:22;;;;;;;11.60;5.88;;;1.80;99.90;;;;;;5032958;28;20064;-74
2021/12/18 08:19:48;;;;;;;9.02;6.13;;;1.80;99.90;;;;;;5032888;28;20085;-75
2021/12/18 08:22:13;;;;;;;14.20;6.90;;;1.60;99.90;;;;;;5033437;28;20041;-74
2021/12/18 08:24:39;;;;;;;9.68;5.55;;;1.20;99.90;;;;;;5033175;28;20025;-75
2021/12/18 08:27:05;;;;;;;10.35;5.90;;;1.10;99.90;;;;;;5034368;28;20518;-74
2021/12/18 08:29:30;;;;;;;9.55;5.70;;;1.40;99.90;;;;;;5015250;28;20445;-75
2021/12/18 08:31:56;;;;;;;8.77;5.43;;;1.50;99.90;;;;;;5032941;28;20044;-74
2021/12/18 08:34:22;;;;;;;10.88;6.20;;;1.90;99.90;;;;;;5015502;28;20014;-74
2021/12/18 08:36:48;;;;;;;10.57;6.07;;;2.20;99.90;;;;;;5015127;28;20026;-74
2021/12/18 08:39:14;;;;;;;11.10;6.57;;;2.40;99.90;;;;;;5016417;28;20038;-75
2021/12/18 08:41:42;;;;;;;12.13;5.63;;;2.60;99.90;;;;;;5015194;28;20033;-74
2021/12/18 08:44:08;;;;;;;10.65;6.07;;;2.70;99.90;;;;;;5032636;28;20495;-74
2021/12/18 08:46:35;;;;;;;11.57;6.68;;;2.40;99.90;;;;;;5032640;28;20045;-74
2021/12/18 08:49:01;;;;;;;10.63;6.45;;;2.30;99.90;;;;;;5032902;28;20071;-74
2021/12/18 08:51:27;;;;;;;11.30;5.75;;;2.40;99.90;;;;;;5033281;28;20030;-74
2021/12/18 08:53:53;;;;;;;11.40;6.35;;;2.30;99.90;;;;;;5033755;28;20479;-74
2021/12/18 08:56:18;;;;;;;11.32;6.35;;;2.10;99.90;;;;;;5033054;28;20037;-76
2021/12/18 08:58:44;;;;;;;9.38;5.75;;;2.20;99.90;;;;;;5014806;28;20041;-76
2021/12/18 09:01:10;;;;;;;12.15;6.15;;;2.50;99.90;;;;;;5032882;28;20033;-76
2021/12/18 09:03:36;;;;;;;11.30;5.97;;;2.60;99.90;;;;;;5032752;28;20546;-76
2021/12/18 09:06:02;;;;;;;11.95;7.32;;;2.40;99.90;;;;;;5034060;28;20503;-76
2021/12/18 09:08:27;;;;;;;14.63;7.07;;;2.30;99.90;;;;;;5032254;28;20025;-76
2021/12/18 09:10:53;;;;;;;13.25;7.35;;;2.50;99.90;;;;;;5032535;28;20117;-76
2021/12/18 09:13:19;;;;;;;13.85;8.27;;;2.90;99.90;;;;;;5014949;28;20021;-76
2021/12/18 09:15:45;;;;;;;14.02;8.23;;;3.10;99.90;;;;;;5032565;28;20502;-76
2021/12/18 09:18:11;;;;;;;15.18;8.48;;;3.10;99.90;;;;;;5034651;28;20033;-76
2021/12/18 09:20:36;;;;;;;16.75;7.80;;;3.20;99.90;;;;;;5032422;28;20499;-76
2021/12/18 09:23:02;;;;;;;14.05;8.10;;;3.10;99.90;;;;;;5014706;28;20513;-75
2021/12/18 09:25:28;;;;;;;13.82;7.72;;;2.90;99.90;;;;;;5031097;28;20108;-75
2021/12/18 09:27:59;;;;;;;13.40;8.23;;;3.00;99.90;;;;;;5030275;28;20037;-74
2021/12/18 09:30:25;;;;;;;13.68;7.28;;;3.20;99.90;;;;;;5030344;28;20021;-75
2021/12/18 09:32:51;;;;;;;12.30;7.20;;;3.30;99.90;;;;;;5030356;28;20521;-74
2021/12/18 09:35:17;;;;;;;14.52;8.52;;;3.00;99.90;;;;;;5029246;28;20118;-75
2021/12/18 09:37:43;;;;;;;14.50;7.65;;;3.00;99.90;;;;;;5029097;28;20103;-75
2021/12/18 09:40:11;;;;;;;13.00;7.97;;;3.30;99.90;;;;;;5029553;28;20144;-74
2021/12/18 09:42:38;;;;;;;14.32;8.05;;;3.60;99.90;;;;;;5029448;28;20068;-74
2021/12/18 09:45:05;;;;;;;15.40;9.07;;;3.50;99.90;;;;;;5012990;28;20048;-75
2021/12/18 09:47:31;;;;;;;15.95;8.90;;;3.70;99.90;;;;;;5011624;28;20048;-74
2021/12/18 09:49:58;;;;;;;16.02;9.45;;;3.50;99.90;;;;;;5029720;28;20021;-74
2021/12/18 09:52:25;;;;;;;16.90;9.63;;;3.40;99.90;;;;;;5029456;28;20032;-74
2021/12/18 09:54:56;;;;;;;14.82;9.55;;;3.80;99.90;;;;;;5029959;28;20506;-74
2021/12/18 09:57:22;;;;;;;14.68;8.13;;;4.10;99.90;;;;;;5031834;28;20033;-75
2021/12/18 09:59:47;;;;;;;17.35;8.65;;;4.30;99.90;;;;;;5011533;28;20571;-74
2021/12/18 10:02:13;;;;;;;12.63;7.72;;;4.40;99.90;;;;;;5029592;28;20104;-74
2021/12/18 10:04:39;;;;;;;12.90;7.50;;;4.60;99.90;;;;;;5029594;28;20022;-74
2021/12/18 10:07:21;;;;;;;12.13;7.60;;;4.70;99.90;;;;;;5029225;28;20202;-74
2021/12/18 10:09:49;;;;;;;11.77;7.32;;;4.50;99.90;;;;;;5029534;28;20518;-74
2021/12/18 10:12:30;;;;;;;13.82;7.90;;;4.60;99.90;;;;;;5013646;28;20062;-74
2021/12/18 10:15:01;;;;;;;10.35;6.78;;;4.50;99.90;;;;;;5030362;28;20052;-74
2021/12/18 10:17:33;;;;;;;12.77;7.20;;;4.60;99.90;;;;;;5025251;28;20352;-74
2021/12/18 10:20:10;;;;;;;13.27;7.75;;;4.70;99.90;;;;;;5028848;28;20088;-75
2021/12/18 10:22:50;;;;;;;12.65;7.07;;;4.70;99.90;;;;;;5028044;28;20044;-74
2021/12/18 10:25:25;;;;;;;11.43;7.45;;;4.80;99.90;;;;;;5028673;28;20048;-76
2021/12/18 10:28:08;;;;;;;13.63;7.88;;;5.00;99.90;;;;;;5028623;28;20083;-76
2021/12/18 10:30:34;;;;;;;13.48;7.82;;;5.10;99.90;;;;;;5028547;28;20120;-75
2021/12/18 10:33:02;;;;;;;14.23;8.20;;;5.10;99.90;;;;;;5012359;28;20120;-75
2021/12/18 10:35:39;;;;;;;12.70;8.43;;;5.10;99.90;;;;;;5010298;28;20025;-75
2021/12/18 10:38:04;;;;;;;13.60;8.13;;;5.10;99.90;;;;;;5027041;28;20061;-75
2021/12/18 10:40:42;;;;;;;16.08;8.48;;;5.30;99.90;;;;;;5028158;28;20537;-75
2021/12/18 10:43:07;;;;;;;14.20;8.85;;;5.30;99.90;;;;;;5027917;28;20030;-75
2021/12/18 10:45:34;;;;;;;13.85;8.15;;;5.30;99.90;;;;;;5028694;28;20036;-75
2021/12/18 10:48:02;;;;;;;15.25;9.05;;;5.50;99.90;;;;;;5029751;28;20068;-75
2021/12/18 10:50:49;;;;;;;13.20;8.73;;;5.40;99.90;;;;;;5009794;28;20503;-75
2021/12/18 10:53:23;;;;;;;14.73;8.88;;;5.40;99.90;;;;;;5027674;28;20150;-75
2021/12/18 10:55:53;;;;;;;12.85;8.32;;;5.60;99.90;;;;;;5027861;28;20024;-75
2021/12/18 10:58:27;;;;;;;13.13;8.30;;;5.70;99.90;;;;;;5028155;28;20026;-75
2021/12/18 11:01:00;;;;;;;14.10;8.73;;;5.80;99.90;;;;;;5027759;28;20026;-75
2021/12/18 11:03:33;;;;;;;15.90;9.10;;;5.90;99.90;;;;;;5028939;28;20055;-75
2021/12/18 11:06:10;;;;;;;14.88;9.13;;;5.90;99.90;;;;;;5011163;28;20038;-75
2021/12/18 11:08:51;;;;;;;15.32;9.38;;;6.10;99.90;;;;;;5027480;28;20097;-75
2021/12/18 11:14:12;;;;;;;15.10;9.45;;;6.30;99.90;;;;;;5027566;28;20053;-75
2021/12/18 11:16:41;;;;;;;13.88;9.73;;;6.30;99.90;;;;;;5009519;28;20384;-75
2021/12/18 11:19:13;;;;;;;14.55;8.77;;;6.50;99.90;;;;;;5027157;28;20022;-75
2021/12/18 11:21:46;;;;;;;15.60;9.63;;;6.50;99.90;;;;;;5009802;28;20087;-75
2021/12/18 11:24:13;;;;;;;19.48;9.45;;;6.30;99.90;;;;;;5028636;28;20040;-75
2021/12/18 11:26:54;;;;;;;14.15;9.10;;;6.30;99.90;;;;;;5027619;28;20025;-75
2021/12/18 11:29:22;;;;;;;14.68;8.80;;;6.30;99.90;;;;;;5027088;28;20030;-75
2021/12/18 11:31:49;;;;;;;19.98;10.55;;;6.50;99.90;;;;;;5009209;28;20025;-75
2021/12/18 11:34:15;;;;;;;19.67;10.27;;;6.90;99.90;;;;;;5009023;28;20049;-75
2021/12/18 11:36:43;;;;;;;12.65;8.68;;;6.70;99.90;;;;;;5009529;28;20037;-75
2021/12/18 11:39:11;;;;;;;14.52;10.15;;;6.60;99.90;;;;;;5029082;28;20033;-75
2021/12/18 11:41:40;;;;;;;17.35;9.80;;;6.50;99.90;;;;;;5026544;28;20490;-75
2021/12/18 11:44:30;;;;;;;16.02;9.45;;;6.50;99.90;;;;;;5026942;28;20064;-75
2021/12/18 11:46:57;;;;;;;14.15;8.65;;;6.70;99.90;;;;;;5008958;28;20072;-75
2021/12/18 11:49:26;;;;;;;14.90;9.35;;;6.80;99.90;;;;;;5026012;28;20067;-75
2021/12/18 11:52:04;;;;;;;13.65;8.48;;;7.10;99.90;;;;;;5026948;28;20032;-75
2021/12/18 11:54:48;;;;;;;15.50;10.15;;;7.40;99.90;;;;;;5027630;28;20185;-75
2021/12/18 11:57:36;;;;;;;16.90;10.70;;;7.70;99.90;;;;;;5010667;28;20128;-75
2021/12/18 12:00:06;;;;;;;15.57;10.02;;;7.70;99.90;;;;;;5028511;28;20036;-75
2021/12/18 12:02:52;;;;;;;15.82;10.18;;;7.90;99.90;;;;;;5008880;28;20033;-76
2021/12/18 12:05:44;;;;;;;16.98;9.50;;;7.90;99.90;;;;;;5026514;28;20033;-76
2021/12/18 12:08:32;;;;;;;15.20;9.07;;;7.80;99.90;;;;;;5009014;28;20045;-76
2021/12/18 12:11:16;;;;;;;14.88;9.00;;;7.60;99.90;;;;;;5026882;28;20511;-76
2021/12/18 12:14:04;;;;;;;13.00;8.70;;;7.40;99.90;;;;;;5026700;28;20051;-76
2021/12/18 12:16:45;;;;;;;12.73;8.68;;;7.80;99.90;;;;;;5026223;28;20323;-76
2021/12/18 12:19:22;;;;;;;16.67;9.88;;;7.90;99.90;;;;;;5026359;28;20029;-76
2021/12/18 12:21:56;;;;;;;14.95;8.48;;;8.00;99.90;;;;;;5026606;28;20045;-76
2021/12/18 12:24:24;;;;;;;14.82;9.55;;;8.40;99.90;;;;;;5028590;28;20022;-76
2021/12/18 12:26:53;;;;;;;13.98;8.07;;;8.70;99.90;;;;;;5027170;28;20088;-76
2021/12/18 12:29:19;;;;;;;13.90;8.65;;;8.60;99.90;;;;;;5026551;28;20025;-76
2021/12/18 12:31:58;;;;;;;11.23;7.13;;;9.10;99.90;;;;;;5026420;28;20028;-76
2021/12/18 12:34:33;;;;;;;12.10;8.02;;;8.90;99.90;;;;;;5026708;28;20112;-76
2021/12/18 12:37:21;;;;;;;13.52;8.00;;;9.00;99.90;;;;;;5026279;28;20873;-76
2021/12/18 12:39:56;;;;;;;14.50;8.43;;;9.00;99.90;;;;;;5026592;28;20538;-76
2021/12/18 12:42:23;;;;;;;12.77;7.50;;;9.20;99.90;;;;;;5010981;28;20499;-76
2021/12/18 12:44:57;;;;;;;11.90;7.55;;;9.30;99.90;;;;;;5026953;28;20049;-76
2021/12/18 12:47:24;;;;;;;10.38;6.72;;;9.30;99.90;;;;;;5025659;28;20053;-76
2021/12/18 12:49:55;;;;;;;11.15;6.47;;;9.40;99.90;;;;;;5026433;28;20084;-76
2021/12/18 12:52:24;;;;;;;10.35;7.00;;;9.80;99.90;;;;;;5026400;28;20026;-76
2021/12/18 12:54:52;;;;;;;9.25;6.85;;;9.40;99.90;;;;;;5008503;28;20060;-76
2021/12/18 12:57:24;;;;;;;10.20;6.80;;;9.50;99.90;;;;;;5028330;28;20029;-76
2021/12/18 12:59:52;;;;;;;10.07;6.82;;;9.60;99.90;;;;;;5027817;28;20053;-76
2021/12/18 13:02:18;;;;;;;7.68;5.75;;;9.40;99.90;;;;;;5030072;28;20025;-76
2021/12/18 13:04:44;;;;;;;9.48;5.95;;;9.20;99.90;;;;;;5029713;28;20029;-76
2021/12/18 13:07:11;;;;;;;8.77;6.13;;;9.50;99.90;;;;;;5010681;28;20492;-76
2021/12/18 13:09:45;;;;;;;7.90;5.35;;;9.90;99.90;;;;;;5015090;28;20059;-75
2021/12/18 13:12:11;;;;;;;8.93;6.10;;;9.50;99.90;;;;;;5017895;28;20023;-76
2021/12/18 13:14:42;;;;;;;8.50;5.68;;;9.80;99.90;;;;;;5023965;28;20030;-76
2021/12/18 13:17:22;;;;;;;7.88;5.40;;;9.70;99.90;;;;;;5024902;28;20116;-76
2021/12/18 13:20:06;;;;;;;7.10;5.05;;;9.40;99.90;;;;;;5012815;28;20498;-76
2021/12/18 13:22:33;;;;;;;8.25;5.25;;;9.70;99.90;;;;;;5030219;28;20116;-76
2021/12/18 13:25:12;;;;;;;10.38;5.45;;;9.80;99.90;;;;;;5031375;28;20033;-76
2021/12/18 13:27:40;;;;;;;8.52;5.32;;;9.80;99.90;;;;;;5011597;28;20314;-76
2021/12/18 13:30:12;;;;;;;8.30;5.00;;;9.80;99.90;;;;;;5002384;28;20057;-76
2021/12/18 13:32:53;;;;;;;6.13;4.80;;;9.90;99.90;;;;;;5008221;28;20032;-76
2021/12/18 13:35:20;;;;;;;7.82;4.95;;;9.90;99.90;;;;;;5025122;28;20026;-76
2021/12/18 13:37:59;;;;;;;6.70;5.00;;;10.00;99.90;;;;;;5030284;28;20112;-76
2021/12/18 13:40:27;;;;;;;5.95;4.68;;;10.00;99.90;;;;;;5030190;28;20502;-76
2021/12/18 13:43:10;;;;;;;6.57;5.15;;;9.70;99.90;;;;;;5012611;28;20122;-76
2021/12/18 13:45:57;;;;;;;7.22;4.75;;;9.50;99.90;;;;;;5030247;28;20080;-76